Terminal Aerodrome Forecast
Issued by NWS

Home | Current Version | Previous Version | Text Only | Print | Product List | Glossary On
Versions: 1 2 3 4 5 6 7 8 9 10 11 12 13 14 15 16 17 18 19 20 21 22 23 24 25 26 27 28 29 30 31 32 33 34 35 36
000
FTAK31 PANC 021130
TAFACD
TAF
PACD 021130Z 0212/0312 27008KT P6SM -RA SCT008 BKN015 BKN030
     FM021800 14006KT P6SM -SHRA SCT008 BKN030 BKN060
     FM030000 14011KT P6SM -SHRA SCT015 BKN030
     FM030600 14013KT 6SM -RA BR SCT008 BKN015=

USA.gov is the U.S. government's official web portal to all federal, state and local government web resources and services.